Terminal Aerodrome Forecast
Issued by NWS

Home | Current Version | Previous Version | Text Only | Print | Product List | Glossary On
Versions: 1 2 3 4 5 6 7 8 9 10 11 12 13 14
856
FTUS45 KTFX 292320
TAFHLN
TAF
KHLN 292320Z 3000/3024 06005KT P6SM VCTS FEW080CB SCT110
      TEMPO 3000/3003 VRB15G30KT -TSRA BKN080CB
     FM300300 36004KT P6SM FEW100 SCT250=

USA.gov is the U.S. government's official web portal to all federal, state and local government web resources and services.